createdAt,value
2023-02-06T00:06:14.084Z,1.23
2023-02-06T00:16:33.201Z,1.00
2023-02-06T00:26:44.849Z,1.00
2023-02-06T00:37:01.200Z,0.90
2023-02-06T00:47:25.368Z,1.10
2023-02-06T00:58:15.928Z,0.98
2023-02-06T01:19:30.123Z,0.70
2023-02-06T01:30:16.806Z,0.65
2023-02-06T01:51:38.047Z,1.48
2023-02-06T02:02:13.262Z,1.02
2023-02-06T02:12:23.968Z,1.15
2023-02-06T02:23:03.712Z,1.05
2023-02-06T05:35:10.236Z,0.82
2023-02-06T06:38:06.064Z,1.42
2023-02-06T06:48:19.399Z,1.42
2023-02-06T06:58:53.032Z,1.20
2023-02-06T09:37:54.019Z,0.52
2023-02-06T15:23:18.371Z,3.45
2023-02-06T15:33:30.836Z,2.38
2023-02-06T15:43:42.067Z,1.55
2023-02-06T15:53:49.177Z,1.15
2023-02-06T16:04:02.470Z,1.70
2023-02-06T16:14:09.762Z,1.20
2023-02-06T16:25:06.197Z,2.65
2023-02-06T16:35:17.408Z,1.25
2023-02-06T16:45:26.416Z,1.48
2023-02-06T16:55:38.074Z,0.95
2023-02-06T17:05:45.027Z,1.10
2023-02-06T17:15:57.251Z,1.17
2023-02-06T17:26:08.736Z,1.40
2023-02-06T17:36:20.132Z,4.28
2023-02-06T17:46:27.402Z,1.40
2023-02-06T17:56:39.810Z,2.30
2023-02-06T18:07:37.050Z,2.60
2023-02-06T18:17:47.640Z,2.67
2023-02-06T18:27:54.494Z,4.15
2023-02-06T18:38:03.688Z,2.92
2023-02-06T18:48:15.299Z,3.10
2023-02-06T18:58:23.699Z,3.05
2023-02-06T19:08:30.458Z,4.32
2023-02-06T19:18:41.984Z,6.25
2023-02-06T19:28:49.523Z,4.22
2023-02-06T19:39:06.066Z,5.05
2023-02-06T19:49:14.698Z,3.70
2023-02-06T19:59:24.375Z,3.63
2023-02-06T20:09:31.852Z,3.30
2023-02-06T20:19:40.386Z,3.35
2023-02-06T20:29:47.343Z,4.20
2023-02-06T20:39:56.311Z,4.38
2023-02-06T20:50:03.076Z,3.35
2023-02-06T21:00:14.029Z,3.08
2023-02-06T21:10:23.668Z,3.60
2023-02-06T21:20:35.674Z,3.13
2023-02-06T21:30:42.834Z,2.65
2023-02-06T21:40:52.072Z,4.70
2023-02-06T21:51:11.047Z,5.13
2023-02-06T22:02:04.401Z,3.03
2023-02-06T22:12:33.517Z,2.88
2023-02-06T22:22:51.374Z,2.70
2023-02-06T22:55:27.710Z,4.60
2023-02-06T23:05:53.096Z,4.43
2023-02-06T23:16:02.339Z,3.72
2023-02-06T23:26:32.996Z,2.50
2023-02-06T23:37:07.478Z,5.40
2023-02-06T23:47:14.989Z,4.10
